UUOO  Voronezh International Airport

Add Bookmark

Voronezh, Russian Federation

Status IATA
Operational VOZ
Latitude Longitude
51° 48' 51" N 39° 13' 46" E
51.814201 39.229599
Local (DST + 4) UTC (GMT + 4)
Jul 31, 2014 11:34 Jul 31, 2014 19:34
Sunrise-Sunset Local UTC
Begin Civil Twilight 05:01 01:01
Sunrise 05:42 01:42
Sunset 09:16 17:16
End Civil Twilight 09:57 17:57

Current Weather

METAR Observed VFR
UUOO 311900Z 00000MPS CAVOK 20/07 Q1015 NOSIG Thu, Jul 31, 2014 @ 19:00 UTC
(34 Minutes ago)
Visual Flight Rules

Decoded METAR

Wind Visibility Clouds Conditions
Calm 10 km or more
  • Clear skies
  • No significant weather
Temperatures Readings Precipitation
Current Temp 20°C (68°F)
Dewpoint 7°C (45°F)
Humidity 43%
Altimeter 29.97"Hg
Sea Level Pressure 1015mb
Field Elevation 515.09'
None Recorded

Forecast Weather

TAF
TAF UUOO 311700Z 3118/0103 VRB02MPS CAVOK
From To
Thu, Jul 31, 2014 @ 18:00 UTC Fri, Aug 1, 2014 @ 03:00 UTC
Wind Visibility Conditions
Varies at 4 knots (7 kph) 10 km or more
  • No significant weather

24 Hour Weather History

Loading
-

24 Hour Weather Graphs

Loading
-

CheckWX.com is intended as a tool to help pilots better visualize weather data. It is not intended as a substitute for an official weather briefing obtained from a Flight Service Station. CheckWX.com does not meet the FAA requirements for an official pre-flight weather briefing. Therefore, it's important that pilots still call and obtain an official FSS pre-flight weather briefing.